Time;durP1;ratioP1;P1;durP2;ratioP2;P2;SDS_P1;SDS_P2;PMS_P1;PMS_P2;Temp;Humidity;BMP_temperature;BMP_pressure;BME280_temperature;BME280_humidity;BME280_pressure;Samples;Min_cycle;Max_cycle;Signal;HPM_P1;HPM_P2
2022/02/12 01:06:53;;;;;;;18.03;3.57;;;;;;;;;;6244925;22;20215;-91
2022/02/12 01:09:58;;;;;;;9.07;3.43;;;;;;;;;;6247255;22;20189;-92
2022/02/12 01:13:04;;;;;;;10.23;3.07;;;;;;;;;;6248309;22;20211;-93
2022/02/12 01:16:09;;;;;;;5.43;2.80;;;;;;;;;;6244855;22;20208;-92
2022/02/12 01:19:15;;;;;;;9.20;3.30;;;;;;;;;;6247039;22;20162;-91
2022/02/12 01:22:23;;;;;;;8.97;3.43;;;;;;;;;;6246870;23;20216;-92
2022/02/12 01:25:28;;;;;;;7.90;3.37;;;;;;;;;;6246844;23;20186;-91
2022/02/12 01:28:34;;;;;;;8.90;3.40;;;;;;;;;;6247794;22;20150;-91
2022/02/12 01:31:39;;;;;;;11.33;3.20;;;;;;;;;;6247223;22;20159;-91
2022/02/12 01:34:44;;;;;;;12.23;3.13;;;;;;;;;;6247500;23;20170;-91
2022/02/12 01:37:52;;;;;;;9.40;2.80;;;;;;;;;;6246491;23;20198;-92
2022/02/12 01:40:57;;;;;;;18.20;3.33;;;;;;;;;;6246628;23;20167;-91
2022/02/12 01:44:09;;;;;;;10.80;3.10;;;;;;;;;;6245729;23;20685;-91
2022/02/12 01:47:15;;;;;;;9.90;3.00;;;;;;;;;;6245797;23;20232;-91
2022/02/12 01:50:21;;;;;;;12.83;3.80;;;;;;;;;;6246166;22;20158;-91
2022/02/12 01:53:29;;;;;;;8.47;3.30;;;;;;;;;;6247493;23;20235;-91
2022/02/12 01:56:35;;;;;;;11.93;3.63;;;;;;;;;;6247133;23;20154;-92
2022/02/12 01:59:41;;;;;;;13.23;3.37;;;;;;;;;;6245011;22;20504;-91
2022/02/12 02:02:47;;;;;;;9.83;3.43;;;;;;;;;;6246744;23;20211;-92
2022/02/12 02:05:52;;;;;;;8.47;3.23;;;;;;;;;;6245890;22;20193;-90
2022/02/12 02:09:03;;;;;;;9.57;3.33;;;;;;;;;;6246768;22;20162;-91
2022/02/12 02:12:10;;;;;;;8.20;2.90;;;;;;;;;;6246298;23;20174;-91
2022/02/12 02:15:15;;;;;;;10.43;3.30;;;;;;;;;;6247821;23;20154;-90
2022/02/12 02:18:20;;;;;;;10.27;3.07;;;;;;;;;;6247848;22;20233;-90
2022/02/12 02:21:25;;;;;;;10.77;2.87;;;;;;;;;;6247773;22;20166;-91
2022/02/12 02:24:33;;;;;;;7.70;3.03;;;;;;;;;;6246929;23;20178;-92
2022/02/12 02:27:38;;;;;;;15.07;3.20;;;;;;;;;;6246005;23;20213;-89
2022/02/12 02:30:45;;;;;;;8.80;3.53;;;;;;;;;;6246460;23;20166;-91
2022/02/12 02:33:51;;;;;;;14.40;3.20;;;;;;;;;;6247427;23;20154;-91
2022/02/12 02:36:56;;;;;;;11.47;2.83;;;;;;;;;;6246307;22;20215;-90
2022/02/12 02:40:02;;;;;;;11.30;3.77;;;;;;;;;;6245188;22;20166;-92
2022/02/12 02:43:07;;;;;;;11.43;3.43;;;;;;;;;;6247609;22;20170;-90
2022/02/12 02:46:13;;;;;;;11.63;3.40;;;;;;;;;;6247592;23;20174;-91
2022/02/12 02:49:19;;;;;;;15.33;3.80;;;;;;;;;;6245241;23;20166;-90
2022/02/12 02:56:01;;;;;;;17.50;4.90;;;;;;;;;;6244093;22;20167;-91
2022/02/12 02:59:06;;;;;;;13.37;4.13;;;;;;;;;;6244419;22;20198;-90
2022/02/12 03:02:12;;;;;;;8.63;3.07;;;;;;;;;;6217883;23;20206;-91
2022/02/12 03:05:18;;;;;;;10.17;3.40;;;;;;;;;;6242839;23;20277;-90
2022/02/12 03:08:22;;;;;;;11.03;4.00;;;;;;;;;;6245491;22;20259;-90
2022/02/12 03:11:29;;;;;;;19.27;5.63;;;;;;;;;;6245234;22;20150;-90
2022/02/12 03:14:33;;;;;;;15.47;3.80;;;;;;;;;;6246618;22;20167;-91
2022/02/12 03:17:38;;;;;;;13.13;3.60;;;;;;;;;;6245632;22;20194;-91
2022/02/12 03:20:44;;;;;;;13.30;3.70;;;;;;;;;;6244300;23;20594;-89
2022/02/12 03:23:49;;;;;;;11.43;4.10;;;;;;;;;;6247572;23;20209;-90
2022/02/12 03:26:55;;;;;;;12.53;3.83;;;;;;;;;;6247248;22;20170;-90
2022/02/12 03:30:00;;;;;;;8.50;3.07;;;;;;;;;;6245868;22;20169;-90
2022/02/12 03:33:06;;;;;;;13.70;3.60;;;;;;;;;;6243907;23;20174;-90
2022/02/12 03:36:11;;;;;;;11.20;3.83;;;;;;;;;;6243374;23;20162;-91
2022/02/12 03:39:17;;;;;;;11.57;3.63;;;;;;;;;;6244344;23;20271;-90
2022/02/12 03:42:23;;;;;;;11.87;3.30;;;;;;;;;;6242281;23;20217;-89
2022/02/12 03:45:28;;;;;;;9.80;3.13;;;;;;;;;;6242982;23;20162;-90
2022/02/12 03:48:34;;;;;;;6.60;3.17;;;;;;;;;;6240882;23;20245;-90
2022/02/12 03:51:39;;;;;;;9.70;3.47;;;;;;;;;;6242903;23;20174;-90
2022/02/12 03:54:43;;;;;;;13.90;3.47;;;;;;;;;;6242220;23;20235;-90
2022/02/12 03:57:50;;;;;;;10.47;3.53;;;;;;;;;;6241204;23;20333;-89
2022/02/12 04:00:55;;;;;;;9.83;3.57;;;;;;;;;;6243128;23;20154;-90
2022/02/12 04:04:01;;;;;;;9.43;3.30;;;;;;;;;;6243052;22;20159;-91
2022/02/12 04:07:06;;;;;;;14.20;3.87;;;;;;;;;;6240857;23;20268;-90
2022/02/12 04:10:12;;;;;;;10.27;3.77;;;;;;;;;;6243184;23;20167;-90
2022/02/12 04:13:20;;;;;;;12.90;4.03;;;;;;;;;;6242409;23;20542;-90
2022/02/12 04:16:34;;;;;;;12.77;4.13;;;;;;;;;;6239234;23;20211;-89
2022/02/12 04:19:40;;;;;;;14.33;4.10;;;;;;;;;;6242873;23;20194;-90
2022/02/12 04:22:46;;;;;;;9.83;3.93;;;;;;;;;;6242815;23;20155;-90
2022/02/12 04:25:52;;;;;;;14.77;4.43;;;;;;;;;;6243117;23;20233;-90
2022/02/12 04:28:59;;;;;;;13.17;3.80;;;;;;;;;;6242994;23;20502;-89
2022/02/12 04:32:05;;;;;;;18.70;5.10;;;;;;;;;;6241682;23;20167;-89
2022/02/12 04:35:13;;;;;;;11.20;3.53;;;;;;;;;;6242576;23;20186;-90
2022/02/12 04:38:18;;;;;;;14.73;3.83;;;;;;;;;;6242370;22;20191;-90
2022/02/12 04:41:23;;;;;;;8.57;3.10;;;;;;;;;;6242302;23;20182;-90
2022/02/12 04:44:29;;;;;;;10.00;3.23;;;;;;;;;;6242674;23;20162;-91
2022/02/12 04:47:36;;;;;;;11.33;3.47;;;;;;;;;;6241786;23;20170;-91
2022/02/12 04:50:41;;;;;;;17.07;3.83;;;;;;;;;;6241195;22;20238;-90
2022/02/12 04:53:48;;;;;;;10.33;3.47;;;;;;;;;;6240899;22;20178;-90
2022/02/12 04:56:53;;;;;;;12.00;3.50;;;;;;;;;;6242708;23;20235;-90
2022/02/12 05:00:01;;;;;;;11.80;4.03;;;;;;;;;;6242575;23;20649;-90
2022/02/12 05:03:45;;;;;;;11.97;3.53;;;;;;;;;;6242916;23;20174;-90
2022/02/12 05:06:51;;;;;;;15.73;3.77;;;;;;;;;;6242098;23;20178;-91
2022/02/12 05:09:56;;;;;;;15.13;4.33;;;;;;;;;;6242673;23;20174;-89
2022/02/12 05:13:01;;;;;;;15.63;4.90;;;;;;;;;;6241831;23;20163;-90
2022/02/12 05:16:15;;;;;;;15.73;4.70;;;;;;;;;;6243145;23;20170;-89
2022/02/12 05:19:20;;;;;;;13.20;4.10;;;;;;;;;;6242476;23;20199;-90
2022/02/12 05:22:26;;;;;;;15.83;5.93;;;;;;;;;;6244364;23;20206;-90
2022/02/12 05:25:32;;;;;;;13.67;5.03;;;;;;;;;;6244372;22;20166;-91
2022/02/12 05:28:37;;;;;;;24.07;6.93;;;;;;;;;;6244447;22;20252;-92
2022/02/12 05:31:44;;;;;;;15.83;5.43;;;;;;;;;;6244166;23;20174;-89
2022/02/12 05:34:49;;;;;;;14.80;4.73;;;;;;;;;;6241925;23;20186;-90
2022/02/12 05:37:54;;;;;;;16.07;4.93;;;;;;;;;;6242094;23;20151;-91
2022/02/12 05:40:59;;;;;;;16.47;5.50;;;;;;;;;;6243451;23;20186;-92
2022/02/12 05:44:04;;;;;;;17.33;5.83;;;;;;;;;;6243583;23;20167;-90
2022/02/12 05:47:11;;;;;;;21.70;5.63;;;;;;;;;;6240879;23;20182;-91
2022/02/12 05:50:16;;;;;;;15.03;5.20;;;;;;;;;;6241230;23;20174;-88
2022/02/12 05:53:22;;;;;;;25.90;6.10;;;;;;;;;;6242234;23;20621;-91
2022/02/12 05:56:27;;;;;;;16.03;5.53;;;;;;;;;;6238933;23;20167;-91
2022/02/12 05:59:32;;;;;;;16.47;5.87;;;;;;;;;;6240484;23;20198;-92
2022/02/12 06:02:39;;;;;;;16.27;5.57;;;;;;;;;;6242495;22;20177;-92
2022/02/12 06:05:43;;;;;;;14.90;5.50;;;;;;;;;;6240122;23;20209;-89
2022/02/12 06:08:49;;;;;;;13.17;5.60;;;;;;;;;;6240328;23;20205;-91
2022/02/12 06:11:54;;;;;;;16.60;5.37;;;;;;;;;;6242583;23;20177;-93
2022/02/12 06:14:59;;;;;;;13.00;5.70;;;;;;;;;;6241802;23;20166;-92
2022/02/12 06:18:06;;;;;;;15.33;5.03;;;;;;;;;;6241465;22;20190;-92
2022/02/12 06:21:12;;;;;;;15.70;5.23;;;;;;;;;;6242849;22;20218;-90
2022/02/12 06:24:17;;;;;;;14.57;4.63;;;;;;;;;;6241922;23;20217;-92
2022/02/12 06:27:22;;;;;;;9.67;4.40;;;;;;;;;;6243141;23;20171;-92
2022/02/12 06:30:27;;;;;;;15.50;5.13;;;;;;;;;;6243988;23;20190;-92
2022/02/12 06:33:34;;;;;;;11.43;4.67;;;;;;;;;;6243787;23;20171;-91
2022/02/12 06:36:38;;;;;;;14.77;4.67;;;;;;;;;;6240756;22;20142;-90
2022/02/12 06:39:44;;;;;;;11.00;5.17;;;;;;;;;;6240030;22;20522;-90
2022/02/12 06:42:49;;;;;;;15.13;4.90;;;;;;;;;;6239708;23;20158;-92
2022/02/12 06:45:55;;;;;;;16.47;4.90;;;;;;;;;;6238894;22;20166;-91
2022/02/12 06:49:01;;;;;;;14.40;4.70;;;;;;;;;;6240436;23;20174;-90
2022/02/12 06:52:07;;;;;;;14.07;5.03;;;;;;;;;;6242524;23;20165;-90
2022/02/12 06:55:12;;;;;;;16.40;4.80;;;;;;;;;;6244939;23;20150;-89
2022/02/12 06:58:17;;;;;;;15.63;4.83;;;;;;;;;;6245334;22;20503;-90
2022/02/12 07:01:25;;;;;;;11.70;4.30;;;;;;;;;;6243141;23;20262;-91
2022/02/12 07:04:34;;;;;;;14.83;5.37;;;;;;;;;;6245532;23;20170;-91
2022/02/12 07:07:46;;;;;;;14.20;4.73;;;;;;;;;;6243385;23;20638;-90
2022/02/12 07:10:51;;;;;;;17.20;5.73;;;;;;;;;;6245217;22;20212;-90
2022/02/12 07:13:56;;;;;;;42.80;13.73;;;;;;;;;;6245933;23;20170;-90
2022/02/12 07:17:08;;;;;;;16.63;6.00;;;;;;;;;;6245206;22;20227;-89
2022/02/12 07:20:15;;;;;;;16.03;5.10;;;;;;;;;;6246028;23;20217;-91
2022/02/12 07:23:21;;;;;;;12.87;5.23;;;;;;;;;;6244326;23;20218;-91
2022/02/12 07:26:26;;;;;;;17.50;5.60;;;;;;;;;;6242851;23;20776;-91
2022/02/12 07:29:31;;;;;;;17.40;5.40;;;;;;;;;;6243377;22;20186;-90
2022/02/12 07:32:38;;;;;;;19.40;5.73;;;;;;;;;;6244276;23;20167;-91
2022/02/12 07:35:45;;;;;;;20.53;5.63;;;;;;;;;;6244572;23;20162;-92
2022/02/12 07:38:50;;;;;;;16.97;5.80;;;;;;;;;;6244231;23;20241;-91
2022/02/12 07:41:55;;;;;;;12.90;5.00;;;;;;;;;;6244928;23;20170;-90
2022/02/12 07:45:00;;;;;;;22.20;5.37;;;;;;;;;;6246250;22;20150;-89
2022/02/12 07:48:06;;;;;;;16.43;5.90;;;;;;;;;;6245851;23;20167;-89
2022/02/12 07:51:13;;;;;;;17.40;5.53;;;;;;;;;;6244929;22;20171;-89
2022/02/12 07:54:17;;;;;;;19.40;5.93;;;;;;;;;;6245615;23;20212;-89
2022/02/12 07:57:22;;;;;;;16.57;6.90;;;;;;;;;;6245699;23;20170;-91
2022/02/12 08:00:28;;;;;;;19.73;7.13;;;;;;;;;;6245441;23;20352;-90
2022/02/12 08:03:33;;;;;;;14.23;6.67;;;;;;;;;;6246610;22;20179;-89
2022/02/12 08:11:22;;;;;;;19.57;7.10;;;;;;;;;;6245649;23;20171;-91
2022/02/12 08:13:30;;;;;;;17.93;7.20;;;;;;;;;;6247595;23;20186;-92
2022/02/12 08:21:31;;;;;;;22.97;7.60;;;;;;;;;;6265165;22;20198;-91
2022/02/12 08:24:38;;;;;;;22.70;7.60;;;;;;;;;;6247074;23;20179;-90
2022/02/12 08:27:44;;;;;;;23.33;7.90;;;;;;;;;;6246055;23;20167;-91
2022/02/12 08:30:49;;;;;;;18.07;7.20;;;;;;;;;;6244107;23;20653;-90
2022/02/12 08:33:54;;;;;;;16.90;6.63;;;;;;;;;;6246764;22;20198;-91
2022/02/12 08:36:59;;;;;;;19.10;7.60;;;;;;;;;;6245846;23;20211;-91
2022/02/12 08:40:10;;;;;;;13.97;6.17;;;;;;;;;;6245411;23;20209;-92
2022/02/12 08:43:16;;;;;;;20.03;6.83;;;;;;;;;;6244861;23;20238;-92
2022/02/12 08:46:25;;;;;;;15.03;5.53;;;;;;;;;;6243145;23;20170;-89
2022/02/12 08:49:31;;;;;;;15.17;4.70;;;;;;;;;;6244409;23;20171;-90
2022/02/12 08:52:38;;;;;;;9.97;4.40;;;;;;;;;;6243582;23;20154;-91
2022/02/12 08:55:46;;;;;;;14.27;4.63;;;;;;;;;;6244162;23;20219;-90
2022/02/12 08:58:52;;;;;;;15.80;4.53;;;;;;;;;;6245661;23;20166;-91
2022/02/12 09:01:58;;;;;;;10.23;3.77;;;;;;;;;;6245412;23;20158;-92
2022/02/12 09:05:03;;;;;;;11.30;4.00;;;;;;;;;;6243657;23;20170;-91
2022/02/12 09:08:08;;;;;;;7.93;3.33;;;;;;;;;;6243346;23;20163;-90
2022/02/12 09:11:15;;;;;;;12.03;3.60;;;;;;;;;;6244883;23;20178;-91
2022/02/12 09:14:33;;;;;;;9.70;3.57;;;;;;;;;;6246290;22;20223;-90
2022/02/12 09:20:58;;;;;;;7.83;3.20;;;;;;;;;;6246887;23;20198;-91
2022/02/12 09:24:04;;;;;;;6.63;3.10;;;;;;;;;;6245134;22;20162;-90
2022/02/12 09:27:11;;;;;;;11.93;3.20;;;;;;;;;;6243834;23;20214;-90
2022/02/12 09:30:16;;;;;;;5.43;2.73;;;;;;;;;;6244256;22;20222;-92
2022/02/12 09:33:21;;;;;;;7.23;2.80;;;;;;;;;;6245101;22;20146;-91
2022/02/12 09:36:27;;;;;;;8.13;2.70;;;;;;;;;;6244835;23;20177;-90
2022/02/12 09:39:32;;;;;;;5.97;2.60;;;;;;;;;;6243510;23;20194;-90
2022/02/12 09:42:39;;;;;;;7.77;2.20;;;;;;;;;;6244468;23;20174;-90
2022/02/12 09:45:45;;;;;;;4.23;2.23;;;;;;;;;;6243997;23;20170;-90
2022/02/12 09:48:50;;;;;;;4.53;2.30;;;;;;;;;;6243836;23;20289;-91
2022/02/12 09:51:56;;;;;;;8.67;2.80;;;;;;;;;;6245589;23;20166;-90
2022/02/12 09:55:04;;;;;;;7.03;2.20;;;;;;;;;;6263192;23;20178;-90
2022/02/12 09:58:14;;;;;;;7.10;2.50;;;;;;;;;;6243907;23;20170;-90
2022/02/12 10:01:19;;;;;;;7.47;2.03;;;;;;;;;;6241123;23;20250;-91
2022/02/12 10:04:25;;;;;;;5.80;2.07;;;;;;;;;;6245861;23;20162;-90
2022/02/12 10:07:31;;;;;;;6.03;2.60;;;;;;;;;;6244025;23;20193;-90
2022/02/12 10:10:38;;;;;;;4.53;1.70;;;;;;;;;;6245767;23;20178;-91
2022/02/12 10:13:47;;;;;;;6.90;1.67;;;;;;;;;;6245806;23;20221;-89
2022/02/12 10:17:00;;;;;;;4.43;1.17;;;;;;;;;;6244619;23;20205;-89
2022/02/12 10:20:07;;;;;;;2.97;1.37;;;;;;;;;;6243550;22;20232;-92
2022/02/12 10:23:13;;;;;;;4.30;1.80;;;;;;;;;;6244684;23;20193;-91
2022/02/12 10:26:19;;;;;;;4.00;1.70;;;;;;;;;;6245164;23;20170;-88
2022/02/12 10:29:27;;;;;;;6.97;1.60;;;;;;;;;;6244554;23;20202;-91
2022/02/12 10:32:33;;;;;;;5.50;2.07;;;;;;;;;;6242718;23;20170;-89
2022/02/12 10:35:40;;;;;;;5.63;2.00;;;;;;;;;;6243447;23;20158;-91
2022/02/12 10:38:48;;;;;;;7.17;2.30;;;;;;;;;;6244531;22;20195;-89
2022/02/12 10:42:05;;;;;;;4.90;2.40;;;;;;;;;;6244061;23;20173;-91
2022/02/12 10:45:16;;;;;;;6.43;2.70;;;;;;;;;;6243271;23;20240;-90
2022/02/12 10:48:22;;;;;;;2.83;1.80;;;;;;;;;;6242179;23;20174;-91
2022/02/12 10:51:27;;;;;;;5.00;2.10;;;;;;;;;;6242394;22;20154;-92
2022/02/12 10:54:49;;;;;;;4.73;1.90;;;;;;;;;;6244267;22;20190;-91
2022/02/12 10:57:56;;;;;;;5.83;2.10;;;;;;;;;;6246850;23;20217;-91
2022/02/12 11:01:04;;;;;;;4.70;1.90;;;;;;;;;;6243947;23;20272;-90
2022/02/12 11:04:09;;;;;;;3.90;1.87;;;;;;;;;;6242162;23;20566;-91
2022/02/12 11:07:16;;;;;;;5.40;1.90;;;;;;;;;;6241216;22;20182;-89
2022/02/12 11:10:22;;;;;;;6.33;1.97;;;;;;;;;;6245392;22;20171;-91
2022/02/12 11:13:28;;;;;;;3.50;2.00;;;;;;;;;;6243108;23;20774;-91
2022/02/12 11:16:37;;;;;;;3.20;1.70;;;;;;;;;;6243538;23;20195;-91
2022/02/12 11:19:44;;;;;;;4.27;2.00;;;;;;;;;;6243392;23;20167;-91
2022/02/12 11:22:55;;;;;;;3.27;1.90;;;;;;;;;;6242035;22;20166;-91
2022/02/12 11:26:20;;;;;;;5.13;2.53;;;;;;;;;;6242581;22;20154;-90
2022/02/12 11:29:33;;;;;;;4.73;1.97;;;;;;;;;;6242124;23;20664;-91
2022/02/12 11:32:46;;;;;;;4.73;2.30;;;;;;;;;;6243607;23;20171;-90
2022/02/12 11:36:19;;;;;;;4.20;2.20;;;;;;;;;;6244948;22;20216;-90
2022/02/12 11:39:31;;;;;;;3.73;1.70;;;;;;;;;;6244939;22;20170;-91
2022/02/12 11:42:40;;;;;;;5.33;1.87;;;;;;;;;;6246621;23;20186;-90
2022/02/12 11:45:47;;;;;;;8.17;1.90;;;;;;;;;;6246395;23;20171;-90
2022/02/12 11:49:15;;;;;;;5.63;1.87;;;;;;;;;;6245596;23;20155;-90
2022/02/12 11:52:34;;;;;;;3.77;1.80;;;;;;;;;;6247811;23;20163;-91
2022/02/12 11:55:40;;;;;;;3.83;2.13;;;;;;;;;;6248037;23;20241;-91
2022/02/12 11:58:51;;;;;;;8.67;2.97;;;;;;;;;;6247942;23;20233;-91
2022/02/12 12:02:08;;;;;;;3.27;1.83;;;;;;;;;;6246024;22;20198;-91
2022/02/12 12:05:19;;;;;;;6.00;2.30;;;;;;;;;;6247291;22;20170;-91
2022/02/12 12:08:27;;;;;;;3.47;2.00;;;;;;;;;;6248519;22;20161;-90
2022/02/12 12:11:33;;;;;;;3.77;2.07;;;;;;;;;;6248765;23;20175;-92
2022/02/12 12:14:38;;;;;;;3.30;1.90;;;;;;;;;;6246854;23;20170;-92
2022/02/12 12:17:43;;;;;;;5.67;1.93;;;;;;;;;;6247356;23;20174;-89
2022/02/12 12:24:12;;;;;;;2.53;1.67;;;;;;;;;;6247176;22;20170;-90
2022/02/12 12:34:08;;;;;;;2.50;1.80;;;;;;;;;;6247149;23;20190;-90
2022/02/12 12:37:17;;;;;;;3.93;1.30;;;;;;;;;;6248151;22;20170;-90
2022/02/12 12:40:29;;;;;;;4.70;1.60;;;;;;;;;;6247632;22;20193;-90
2022/02/12 12:43:35;;;;;;;2.83;1.33;;;;;;;;;;6245610;23;20154;-90
2022/02/12 12:46:41;;;;;;;2.00;1.20;;;;;;;;;;6244890;23;20272;-90
2022/02/12 12:49:46;;;;;;;4.50;1.70;;;;;;;;;;6246032;23;20171;-91
2022/02/12 12:53:05;;;;;;;7.00;1.73;;;;;;;;;;6244872;23;20190;-90
2022/02/12 12:56:12;;;;;;;2.40;1.50;;;;;;;;;;6247925;23;20170;-90
2022/02/12 12:59:21;;;;;;;2.20;1.20;;;;;;;;;;6244758;23;20165;-89
2022/02/12 13:02:27;;;;;;;3.10;1.60;;;;;;;;;;6244542;23;20174;-90
2022/02/12 13:05:33;;;;;;;3.27;1.30;;;;;;;;;;6245056;23;20166;-91
2022/02/12 13:08:40;;;;;;;2.50;1.50;;;;;;;;;;6243478;23;20206;-89
2022/02/12 13:11:45;;;;;;;5.67;1.37;;;;;;;;;;6245514;23;20225;-90
2022/02/12 13:14:52;;;;;;;3.50;1.47;;;;;;;;;;6245893;22;20577;-90
2022/02/12 13:17:58;;;;;;;4.90;1.57;;;;;;;;;;6245665;23;20158;-90
2022/02/12 13:21:12;;;;;;;3.33;1.40;;;;;;;;;;6245306;23;20205;-91
2022/02/12 13:24:19;;;;;;;2.30;1.43;;;;;;;;;;6245424;23;20158;-91
2022/02/12 13:27:26;;;;;;;3.53;1.33;;;;;;;;;;6245586;23;20182;-90
2022/02/12 13:30:42;;;;;;;4.00;1.70;;;;;;;;;;6245832;22;20178;-91
2022/02/12 13:33:57;;;;;;;4.53;1.67;;;;;;;;;;6246542;23;20163;-90
2022/02/12 13:37:03;;;;;;;5.33;2.03;;;;;;;;;;6247012;23;20178;-89
2022/02/12 13:40:18;;;;;;;3.70;1.77;;;;;;;;;;6245706;23;20221;-90
2022/02/12 13:46:47;;;;;;;2.63;1.53;;;;;;;;;;6249792;22;20215;-92
2022/02/12 13:49:54;;;;;;;3.57;1.73;;;;;;;;;;6245249;22;20171;-91
2022/02/12 13:53:00;;;;;;;7.27;1.70;;;;;;;;;;6245052;23;20210;-91
2022/02/12 13:56:07;;;;;;;4.23;1.70;;;;;;;;;;6243718;23;20167;-91
2022/02/12 13:59:13;;;;;;;3.47;1.93;;;;;;;;;;6245135;23;20170;-91
2022/02/12 14:02:18;;;;;;;4.87;1.80;;;;;;;;;;6244477;23;20190;-92
2022/02/12 14:05:25;;;;;;;4.97;1.50;;;;;;;;;;6243753;23;20170;-90
2022/02/12 14:08:30;;;;;;;5.63;2.03;;;;;;;;;;6247146;23;20492;-92
2022/02/12 14:11:46;;;;;;;3.20;2.00;;;;;;;;;;6246251;23;20166;-92
2022/02/12 14:14:55;;;;;;;3.33;1.70;;;;;;;;;;6250928;23;20170;-91
2022/02/12 14:18:02;;;;;;;3.40;1.70;;;;;;;;;;6246928;22;20174;-88
2022/02/12 14:21:08;;;;;;;2.83;2.00;;;;;;;;;;6247146;23;20198;-88
2022/02/12 14:24:13;;;;;;;5.33;2.07;;;;;;;;;;6246070;22;20158;-90
2022/02/12 14:27:20;;;;;;;5.83;2.17;;;;;;;;;;6245509;23;20166;-88
2022/02/12 14:30:26;;;;;;;2.07;1.50;;;;;;;;;;6244490;23;20167;-88
2022/02/12 14:33:40;;;;;;;4.13;1.40;;;;;;;;;;6263572;23;20175;-88
2022/02/12 14:36:52;;;;;;;3.60;1.80;;;;;;;;;;6247183;23;20166;-90
2022/02/12 14:39:59;;;;;;;2.87;1.70;;;;;;;;;;6245094;23;20302;-90
2022/02/12 14:43:07;;;;;;;4.17;1.97;;;;;;;;;;6244930;23;20174;-88
2022/02/12 14:46:15;;;;;;;9.37;3.00;;;;;;;;;;6244680;23;20186;-90
2022/02/12 14:49:22;;;;;;;7.13;2.70;;;;;;;;;;6244461;23;20199;-89
2022/02/12 14:52:29;;;;;;;4.53;2.30;;;;;;;;;;6244039;22;20162;-91
2022/02/12 14:55:34;;;;;;;5.53;2.83;;;;;;;;;;6243865;23;20174;-91
2022/02/12 14:58:42;;;;;;;22.40;8.10;;;;;;;;;;6243874;23;20250;-91
2022/02/12 15:01:50;;;;;;;27.67;8.23;;;;;;;;;;6244155;23;20301;-91
2022/02/12 15:05:02;;;;;;;7.80;3.00;;;;;;;;;;6242766;23;20166;-90
2022/02/12 15:08:09;;;;;;;6.43;2.27;;;;;;;;;;6244005;23;20178;-90
2022/02/12 15:11:16;;;;;;;10.00;3.00;;;;;;;;;;6242768;23;20242;-91
2022/02/12 15:14:24;;;;;;;4.57;1.80;;;;;;;;;;6245260;22;20157;-89
2022/02/12 15:17:31;;;;;;;3.67;2.00;;;;;;;;;;6246318;22;20166;-90
2022/02/12 15:20:36;;;;;;;4.17;1.60;;;;;;;;;;6244991;23;20173;-90
2022/02/12 15:23:44;;;;;;;5.33;2.77;;;;;;;;;;6247006;23;20174;-90
2022/02/12 15:26:50;;;;;;;2.53;1.33;;;;;;;;;;6250594;22;20178;-88
2022/02/12 15:30:00;;;;;;;3.13;1.70;;;;;;;;;;6246388;23;20214;-90
2022/02/12 15:33:07;;;;;;;3.77;1.50;;;;;;;;;;6265054;22;20169;-90
2022/02/12 15:36:13;;;;;;;2.20;1.50;;;;;;;;;;6246207;23;20174;-89
2022/02/12 15:39:19;;;;;;;6.63;4.10;;;;;;;;;;6247146;23;20197;-91
2022/02/12 15:42:24;;;;;;;3.10;1.60;;;;;;;;;;6246358;23;20189;-90
2022/02/12 15:45:32;;;;;;;4.00;1.80;;;;;;;;;;6246656;23;20613;-89
2022/02/12 15:48:39;;;;;;;5.90;2.20;;;;;;;;;;6247821;23;20170;-88
2022/02/12 15:51:45;;;;;;;5.40;2.10;;;;;;;;;;6246000;23;20186;-88
2022/02/12 15:54:50;;;;;;;3.97;1.90;;;;;;;;;;6246115;23;20193;-90
2022/02/12 15:57:58;;;;;;;5.53;3.60;;;;;;;;;;6244986;23;20206;-90
2022/02/12 16:01:05;;;;;;;4.20;2.80;;;;;;;;;;6245533;23;20197;-90
2022/02/12 16:04:10;;;;;;;6.93;3.10;;;;;;;;;;6245107;23;20174;-90
2022/02/12 16:07:16;;;;;;;6.20;2.50;;;;;;;;;;6245630;22;20185;-89
2022/02/12 16:10:21;;;;;;;4.00;2.10;;;;;;;;;;6245489;22;20175;-89
2022/02/12 16:13:27;;;;;;;6.10;3.90;;;;;;;;;;6247239;22;20150;-89
2022/02/12 16:16:37;;;;;;;8.53;3.90;;;;;;;;;;6246889;23;20170;-89
2022/02/12 16:19:43;;;;;;;16.43;4.13;;;;;;;;;;6245782;23;20571;-91
2022/02/12 16:22:51;;;;;;;11.93;4.67;;;;;;;;;;6246765;23;20255;-91
2022/02/12 16:25:56;;;;;;;7.57;3.47;;;;;;;;;;6245750;23;20170;-91
2022/02/12 16:29:02;;;;;;;6.47;3.23;;;;;;;;;;6245495;23;20166;-90
2022/02/12 16:32:09;;;;;;;7.47;3.10;;;;;;;;;;6245956;23;20464;-91
2022/02/12 16:35:15;;;;;;;5.77;3.37;;;;;;;;;;6244849;23;20167;-90
2022/02/12 16:38:22;;;;;;;4.83;2.70;;;;;;;;;;6244466;23;20151;-90
2022/02/12 16:41:27;;;;;;;4.53;2.10;;;;;;;;;;6244851;23;20194;-89
2022/02/12 16:44:33;;;;;;;4.93;2.10;;;;;;;;;;6243145;23;20241;-91
2022/02/12 16:47:41;;;;;;;14.40;2.40;;;;;;;;;;6244218;23;20166;-91
2022/02/12 16:50:48;;;;;;;12.97;2.53;;;;;;;;;;6243680;23;20210;-90
2022/02/12 16:54:03;;;;;;;9.20;2.80;;;;;;;;;;6242754;23;20166;-91
2022/02/12 16:57:10;;;;;;;6.10;3.00;;;;;;;;;;6243488;23;20178;-91
2022/02/12 17:00:19;;;;;;;6.30;3.00;;;;;;;;;;6244738;23;20170;-89
2022/02/12 17:03:26;;;;;;;9.80;3.40;;;;;;;;;;6244397;23;20178;-90
2022/02/12 17:06:35;;;;;;;9.17;3.70;;;;;;;;;;6243489;23;20197;-91
2022/02/12 17:09:41;;;;;;;10.20;3.97;;;;;;;;;;6244202;23;20175;-90
2022/02/12 17:12:47;;;;;;;8.37;4.67;;;;;;;;;;6244381;23;20178;-90
2022/02/12 17:15:54;;;;;;;13.07;4.73;;;;;;;;;;6242716;22;20162;-89
2022/02/12 17:19:02;;;;;;;13.30;6.20;;;;;;;;;;6243432;22;20194;-90
2022/02/12 17:22:10;;;;;;;10.97;5.90;;;;;;;;;;6244064;22;20222;-90
2022/02/12 17:25:15;;;;;;;20.60;5.20;;;;;;;;;;6243171;23;20175;-90
2022/02/12 17:28:22;;;;;;;17.30;7.97;;;;;;;;;;6242778;23;20170;-91
2022/02/12 17:31:32;;;;;;;9.33;4.27;;;;;;;;;;6242642;23;20202;-90
2022/02/12 17:34:39;;;;;;;5.80;2.60;;;;;;;;;;6242843;23;20157;-90
2022/02/12 17:37:45;;;;;;;7.40;2.70;;;;;;;;;;6244425;23;20250;-91
2022/02/12 17:40:50;;;;;;;8.57;3.37;;;;;;;;;;6242592;23;20166;-90
2022/02/12 17:43:55;;;;;;;12.27;4.87;;;;;;;;;;6244234;23;20241;-90
2022/02/12 17:47:02;;;;;;;17.47;7.17;;;;;;;;;;6241905;23;20186;-90
2022/02/12 17:50:14;;;;;;;9.90;3.97;;;;;;;;;;6224487;22;20185;-90
2022/02/12 17:53:20;;;;;;;9.17;4.10;;;;;;;;;;6242345;23;20187;-91
2022/02/12 17:56:25;;;;;;;11.30;5.60;;;;;;;;;;6244219;23;20171;-90
2022/02/12 17:59:32;;;;;;;14.90;6.20;;;;;;;;;;6242100;23;20166;-89
2022/02/12 18:02:42;;;;;;;12.50;4.90;;;;;;;;;;6243225;23;20537;-90
2022/02/12 18:06:03;;;;;;;10.67;4.10;;;;;;;;;;6243804;22;20147;-90
2022/02/12 18:12:35;;;;;;;10.23;4.40;;;;;;;;;;6240645;23;20170;-90
2022/02/12 18:16:12;;;;;;;10.50;4.20;;;;;;;;;;6242375;23;20166;-90
2022/02/12 18:19:18;;;;;;;59.23;19.80;;;;;;;;;;6239672;23;20195;-91
2022/02/12 18:22:23;;;;;;;11.17;5.10;;;;;;;;;;6240133;22;20233;-90
2022/02/12 18:25:30;;;;;;;12.03;4.87;;;;;;;;;;6241980;23;20186;-90
2022/02/12 18:28:35;;;;;;;7.63;3.67;;;;;;;;;;6244144;23;20170;-90
2022/02/12 18:31:40;;;;;;;16.13;5.57;;;;;;;;;;6241567;23;20265;-89
2022/02/12 18:34:47;;;;;;;11.67;5.20;;;;;;;;;;6244381;22;20158;-89
2022/02/12 18:37:53;;;;;;;16.27;6.10;;;;;;;;;;6242919;22;20166;-89
2022/02/12 18:41:00;;;;;;;8.17;4.13;;;;;;;;;;6240429;23;20171;-90
2022/02/12 18:44:06;;;;;;;9.63;4.17;;;;;;;;;;6240215;23;20248;-91
2022/02/12 18:47:11;;;;;;;9.93;4.00;;;;;;;;;;6241269;23;20191;-87
2022/02/12 18:50:17;;;;;;;9.27;3.93;;;;;;;;;;6243845;23;20150;-87
2022/02/12 18:53:21;;;;;;;10.77;4.40;;;;;;;;;;6244956;22;20209;-89
2022/02/12 18:56:28;;;;;;;36.17;11.57;;;;;;;;;;6243643;22;20178;-90
2022/02/12 18:59:36;;;;;;;34.93;15.60;;;;;;;;;;6248874;23;20186;-88
2022/02/12 19:02:42;;;;;;;13.50;4.60;;;;;;;;;;6243401;23;20256;-89
2022/02/12 19:05:48;;;;;;;12.10;4.50;;;;;;;;;;6249377;22;20182;-90
2022/02/12 19:08:54;;;;;;;9.37;4.50;;;;;;;;;;6247484;23;20282;-89
2022/02/12 19:12:02;;;;;;;7.33;3.90;;;;;;;;;;6230638;23;20186;-89
2022/02/12 19:15:12;;;;;;;11.60;4.73;;;;;;;;;;6247038;23;20247;-89
2022/02/12 19:18:19;;;;;;;9.33;4.50;;;;;;;;;;6248386;23;20492;-89
2022/02/12 19:21:25;;;;;;;10.17;4.30;;;;;;;;;;6247453;23;20173;-88
2022/02/12 19:24:30;;;;;;;8.80;4.07;;;;;;;;;;6245672;23;20158;-90
2022/02/12 19:27:38;;;;;;;11.50;5.13;;;;;;;;;;6247080;23;20217;-90
2022/02/12 19:30:43;;;;;;;9.27;4.37;;;;;;;;;;6246921;22;20170;-89
2022/02/12 19:33:50;;;;;;;14.43;5.10;;;;;;;;;;6246518;23;20210;-91
2022/02/12 19:36:55;;;;;;;14.03;5.53;;;;;;;;;;6244035;23;20209;-90
2022/02/12 19:40:04;;;;;;;30.43;11.17;;;;;;;;;;6244519;23;20555;-89
2022/02/12 19:43:13;;;;;;;15.30;5.63;;;;;;;;;;6246930;22;20257;-89
2022/02/12 19:46:18;;;;;;;13.20;6.10;;;;;;;;;;6246199;22;20185;-88
2022/02/12 19:49:24;;;;;;;15.13;6.50;;;;;;;;;;6246909;23;20182;-89
2022/02/12 19:52:35;;;;;;;16.57;5.80;;;;;;;;;;6245876;23;20166;-87
2022/02/12 19:55:50;;;;;;;14.17;5.23;;;;;;;;;;6246287;22;20610;-89
2022/02/12 19:58:57;;;;;;;15.23;4.20;;;;;;;;;;6246937;23;20190;-91
2022/02/12 20:02:06;;;;;;;10.17;4.70;;;;;;;;;;6245912;23;20520;-90
2022/02/12 20:05:12;;;;;;;13.03;4.93;;;;;;;;;;6244537;23;20693;-90
2022/02/12 20:08:17;;;;;;;14.03;5.63;;;;;;;;;;6242800;23;20185;-91
2022/02/12 20:11:23;;;;;;;13.63;6.13;;;;;;;;;;6244944;23;20320;-90